Time;durP1;ratioP1;P1;durP2;ratioP2;P2;SDS_P1;SDS_P2;PMS_P1;PMS_P2;Temp;Humidity;BMP_temperature;BMP_pressure;BME280_temperature;BME280_humidity;BME280_pressure;Samples;Min_cycle;Max_cycle;Signal;HPM_P1;HPM_P2
2022/11/06 00:02:11;;;;;;;11.57;2.50;;;13.50;99.90;;;;;;5014963;28;20058;-75
2022/11/06 00:04:46;;;;;;;10.10;2.30;;;13.50;99.90;;;;;;5015642;28;20068;-74
2022/11/06 00:07:14;;;;;;;7.35;1.95;;;13.50;99.90;;;;;;5015551;28;20053;-75
2022/11/06 00:09:42;;;;;;;8.30;2.35;;;13.50;99.90;;;;;;5014485;28;20054;-75
2022/11/06 00:12:09;;;;;;;9.30;2.30;;;13.50;99.90;;;;;;4998550;28;20392;-74
2022/11/06 00:14:36;;;;;;;8.10;1.95;;;13.50;99.90;;;;;;5015659;28;20274;-74
2022/11/06 00:17:04;;;;;;;5.53;2.17;;;13.50;99.90;;;;;;5014448;28;20042;-75
2022/11/06 00:19:31;;;;;;;7.82;2.13;;;13.50;99.90;;;;;;5015412;28;20045;-74
2022/11/06 00:21:59;;;;;;;7.97;2.30;;;13.50;99.90;;;;;;5014689;28;20076;-73
2022/11/06 00:24:26;;;;;;;12.57;2.30;;;13.50;99.90;;;;;;4998126;28;20476;-75
2022/11/06 00:26:54;;;;;;;10.60;2.38;;;13.60;99.90;;;;;;5015580;28;20104;-75
2022/11/06 00:29:21;;;;;;;12.07;2.40;;;13.60;99.90;;;;;;4997245;28;20060;-74
2022/11/06 00:31:49;;;;;;;9.30;2.05;;;13.50;99.90;;;;;;4997825;28;20393;-74
2022/11/06 00:34:17;;;;;;;12.60;2.30;;;14.00;99.90;;;;;;5015632;28;20041;-74
2022/11/06 00:36:44;;;;;;;9.02;1.73;;;13.50;99.90;;;;;;4997113;28;20056;-74
2022/11/06 00:39:12;;;;;;;4.63;1.65;;;13.50;99.90;;;;;;5015109;28;20056;-74
2022/11/06 00:41:39;;;;;;;5.22;1.75;;;13.50;99.90;;;;;;5015209;28;20049;-74
2022/11/06 00:44:09;;;;;;;6.80;1.60;;;13.50;99.90;;;;;;4997033;28;20050;-74
2022/11/06 00:46:36;;;;;;;4.10;1.63;;;13.50;99.90;;;;;;4997765;28;20053;-75
2022/11/06 00:49:04;;;;;;;5.07;1.35;;;13.50;99.90;;;;;;5013978;28;20049;-75
2022/11/06 00:51:40;;;;;;;6.13;1.70;;;13.50;99.90;;;;;;4998004;28;20049;-75
2022/11/06 00:54:11;;;;;;;6.82;1.73;;;13.50;99.90;;;;;;5001462;28;20060;-75
2022/11/06 00:56:39;;;;;;;5.70;1.50;;;13.50;99.90;;;;;;5033539;28;20461;-74
2022/11/06 00:59:09;;;;;;;;;;;13.50;99.90;;;;;;5035024;28;20048;-75
2022/11/06 01:01:38;;;;;;;6.15;1.48;;;13.50;99.90;;;;;;5034774;28;19921;-75
2022/11/06 01:04:12;;;;;;;8.80;1.98;;;13.50;99.90;;;;;;5032707;28;20041;-75
2022/11/06 01:06:41;;;;;;;5.80;1.77;;;13.50;99.90;;;;;;5034594;28;20068;-74
2022/11/06 01:09:12;;;;;;;5.70;1.98;;;13.50;99.90;;;;;;5033438;28;20056;-75
2022/11/06 01:11:43;;;;;;;9.25;1.95;;;13.50;99.90;;;;;;5034152;28;20049;-74
2022/11/06 01:14:30;;;;;;;8.60;1.95;;;13.50;99.90;;;;;;5034935;28;20037;-75
2022/11/06 01:16:58;;;;;;;8.75;1.98;;;13.50;99.90;;;;;;5033738;28;20506;-73
2022/11/06 01:19:25;;;;;;;9.60;2.10;;;13.50;99.90;;;;;;5033647;28;20053;-75
2022/11/06 01:21:53;;;;;;;7.60;1.83;;;13.50;99.90;;;;;;5033780;28;20064;-74
2022/11/06 01:24:24;;;;;;;7.97;2.00;;;13.50;99.90;;;;;;5034671;28;20049;-74
2022/11/06 01:26:53;;;;;;;9.20;2.05;;;13.50;99.90;;;;;;5034602;28;20053;-75
2022/11/06 01:29:40;;;;;;;6.57;1.67;;;13.50;99.90;;;;;;5033371;28;20475;-75
2022/11/06 01:32:08;;;;;;;11.32;2.15;;;13.50;99.90;;;;;;5034318;28;20491;-75
2022/11/06 01:34:36;;;;;;;7.70;1.77;;;13.50;99.90;;;;;;5035050;28;20048;-74
2022/11/06 01:37:03;;;;;;;6.78;1.65;;;13.50;99.90;;;;;;5032398;28;20053;-75
2022/11/06 01:39:31;;;;;;;9.80;1.52;;;13.60;99.90;;;;;;5034269;28;20056;-75
2022/11/06 01:41:58;;;;;;;8.40;1.65;;;13.50;99.90;;;;;;5033133;28;20068;-75
2022/11/06 01:44:32;;;;;;;8.63;1.90;;;13.60;99.90;;;;;;5034313;28;20060;-74
2022/11/06 01:47:02;;;;;;;4.95;1.55;;;13.60;99.90;;;;;;5034306;28;20049;-74
2022/11/06 01:49:37;;;;;;;7.30;1.50;;;13.60;99.90;;;;;;5033112;28;20049;-73
2022/11/06 01:52:10;;;;;;;7.00;1.60;;;13.60;99.90;;;;;;5034154;28;20050;-75
2022/11/06 01:54:40;;;;;;;11.93;1.67;;;13.60;99.90;;;;;;5033308;28;20060;-73
2022/11/06 01:57:09;;;;;;;10.80;1.75;;;13.60;99.90;;;;;;5032897;28;20061;-75
2022/11/06 01:59:41;;;;;;;5.93;1.33;;;13.60;99.90;;;;;;5034479;28;20057;-75
2022/11/06 02:02:10;;;;;;;4.68;1.60;;;13.60;99.90;;;;;;5033510;28;20260;-75
2022/11/06 02:04:42;;;;;;;7.00;1.35;;;13.60;99.90;;;;;;5034255;28;20045;-75
2022/11/06 02:07:11;;;;;;;7.53;1.15;;;13.50;99.90;;;;;;5016931;28;20380;-74
2022/11/06 02:09:38;;;;;;;8.57;1.25;;;13.60;99.90;;;;;;5032869;28;20037;-74
2022/11/06 02:12:35;;;;;;;5.15;1.27;;;13.60;99.90;;;;;;5034197;28;20037;-74
2022/11/06 02:15:25;;;;;;;6.97;1.25;;;13.60;99.90;;;;;;5017034;28;20460;-75
2022/11/06 02:18:11;;;;;;;2.97;1.10;;;13.60;99.90;;;;;;5020309;28;20473;-75
2022/11/06 02:20:45;;;;;;;6.25;1.42;;;13.60;99.90;;;;;;5037854;28;20049;-75
2022/11/06 02:23:56;;;;;;;9.95;1.70;;;13.60;99.90;;;;;;5035760;28;20512;-75
2022/11/06 02:26:52;;;;;;;10.38;2.03;;;13.60;99.90;;;;;;5037399;28;20655;-73
2022/11/06 02:29:53;;;;;;;8.27;1.95;;;13.60;99.90;;;;;;5036215;28;20045;-75
2022/11/06 02:32:28;;;;;;;12.05;2.25;;;13.60;99.90;;;;;;4983640;28;20373;-74
2022/11/06 02:34:59;;;;;;;11.75;2.20;;;13.60;99.90;;;;;;5036993;28;20045;-74
2022/11/06 02:37:31;;;;;;;11.13;2.42;;;13.60;99.90;;;;;;5035239;28;20468;-75
2022/11/06 02:40:04;;;;;;;10.57;2.15;;;13.60;99.90;;;;;;5037327;28;20054;-75
2022/11/06 02:42:36;;;;;;;12.65;2.30;;;13.60;99.90;;;;;;5035294;28;20057;-75
2022/11/06 02:45:08;;;;;;;8.32;2.00;;;13.60;99.90;;;;;;5037228;28;20060;-75
2022/11/06 02:47:39;;;;;;;13.20;1.95;;;13.60;99.90;;;;;;5037321;28;20041;-75
2022/11/06 02:50:20;;;;;;;10.45;2.20;;;13.60;99.90;;;;;;5036023;28;20050;-73
2022/11/06 02:52:56;;;;;;;10.00;2.17;;;13.60;99.90;;;;;;5036324;28;20368;-74
2022/11/06 02:55:31;;;;;;;8.40;1.90;;;13.60;99.90;;;;;;5016041;28;20046;-74
2022/11/06 02:58:22;;;;;;;16.00;2.10;;;13.80;99.90;;;;;;5017629;28;20046;-74
2022/11/06 03:00:56;;;;;;;8.98;1.90;;;13.60;99.90;;;;;;4954415;28;20057;-74
2022/11/06 03:03:28;;;;;;;11.18;2.13;;;13.60;99.90;;;;;;4998761;28;20061;-74
2022/11/06 03:06:10;;;;;;;18.05;2.13;;;13.70;99.90;;;;;;4983785;28;20507;-74
2022/11/06 03:08:43;;;;;;;11.68;2.10;;;13.60;99.90;;;;;;5015846;28;20053;-74
2022/11/06 03:11:13;;;;;;;9.98;2.13;;;13.60;99.90;;;;;;4999943;28;20061;-74
2022/11/06 03:13:41;;;;;;;9.48;2.20;;;13.60;99.90;;;;;;5016935;28;20068;-74
2022/11/06 03:16:17;;;;;;;16.17;2.20;;;13.60;99.90;;;;;;5015754;28;20046;-75
2022/11/06 03:19:04;;;;;;;17.05;2.58;;;13.60;99.90;;;;;;4999931;28;20761;-75
2022/11/06 03:21:52;;;;;;;14.65;2.38;;;13.60;99.90;;;;;;5000039;28;20057;-74
2022/11/06 03:24:33;;;;;;;16.63;2.67;;;13.60;99.90;;;;;;5016788;28;20046;-74
2022/11/06 03:27:09;;;;;;;17.05;2.83;;;13.90;99.90;;;;;;4999903;28;20048;-74
2022/11/06 03:29:43;;;;;;;19.98;2.97;;;13.80;99.90;;;;;;4998429;28;20061;-74
2022/11/06 03:32:43;;;;;;;16.08;2.40;;;13.90;99.90;;;;;;5016302;28;20053;-74
2022/11/06 03:35:34;;;;;;;22.02;2.50;;;13.60;99.90;;;;;;5015316;28;20046;-74
2022/11/06 03:38:14;;;;;;;9.38;2.00;;;13.60;99.90;;;;;;4999733;28;20042;-74
2022/11/06 03:40:51;;;;;;;14.50;2.38;;;13.60;99.90;;;;;;5016356;28;20045;-74
2022/11/06 03:43:25;;;;;;;13.15;2.00;;;13.60;99.90;;;;;;4981840;28;20366;-74
2022/11/06 03:45:55;;;;;;;9.38;1.65;;;13.60;99.90;;;;;;5016730;28;20500;-74
2022/11/06 03:48:32;;;;;;;11.02;1.90;;;13.60;99.90;;;;;;4999366;28;20042;-74
2022/11/06 03:51:11;;;;;;;17.05;2.03;;;13.60;99.90;;;;;;5016144;28;20496;-73
2022/11/06 03:53:47;;;;;;;;;;;13.60;99.90;;;;;;5016276;28;20038;-74
2022/11/06 03:56:24;;;;;;;12.05;1.63;;;13.60;99.90;;;;;;5015306;28;19928;-74
2022/11/06 03:58:54;;;;;;;10.73;1.60;;;13.60;99.90;;;;;;5015972;28;20081;-74
2022/11/06 04:01:28;;;;;;;10.45;1.13;;;13.60;99.90;;;;;;5016299;28;20057;-74
2022/11/06 04:04:02;;;;;;;8.57;1.50;;;13.50;99.90;;;;;;4997790;28;20049;-73
2022/11/06 04:06:44;;;;;;;8.63;1.00;;;13.60;99.90;;;;;;5015944;28;20069;-74
2022/11/06 04:14:53;;;;;;;5.07;1.00;;;13.50;99.90;;;;;;5015791;28;20117;-74
2022/11/06 04:17:22;;;;;;;3.67;0.73;;;13.50;99.90;;;;;;4997255;28;20061;-75
2022/11/06 04:19:59;;;;;;;4.78;0.75;;;13.50;99.90;;;;;;4998582;28;20050;-74
2022/11/06 04:22:54;;;;;;;2.90;0.90;;;13.50;99.90;;;;;;5014501;28;20065;-74
2022/11/06 04:28:22;;;;;;;4.63;0.70;;;13.50;99.90;;;;;;5015546;28;20046;-75
2022/11/06 04:31:09;;;;;;;3.60;0.70;;;13.60;99.90;;;;;;4997245;28;20053;-74
2022/11/06 04:33:48;;;;;;;5.93;0.80;;;13.60;99.90;;;;;;4998005;28;20512;-74
2022/11/06 04:36:38;;;;;;;4.32;0.80;;;13.60;99.90;;;;;;4997179;28;20052;-75
2022/11/06 04:39:12;;;;;;;2.30;0.70;;;13.60;99.90;;;;;;5015426;28;20073;-74
2022/11/06 04:41:49;;;;;;;4.53;0.90;;;13.60;99.90;;;;;;5014601;28;20160;-74
2022/11/06 04:44:40;;;;;;;3.55;0.70;;;13.60;99.90;;;;;;5015542;28;20065;-74
2022/11/06 04:47:10;;;;;;;3.25;0.80;;;13.60;99.90;;;;;;4998296;28;20050;-75
2022/11/06 04:49:41;;;;;;;5.35;0.73;;;13.60;99.90;;;;;;5014194;28;20053;-75
2022/11/06 04:52:17;;;;;;;6.28;0.90;;;13.60;99.90;;;;;;4997858;28;20050;-74
2022/11/06 04:54:46;;;;;;;8.32;1.33;;;13.60;99.90;;;;;;5028040;28;20045;-74
2022/11/06 04:57:13;;;;;;;5.85;1.17;;;13.60;99.90;;;;;;5033598;28;20045;-74
2022/11/06 04:59:40;;;;;;;10.00;1.70;;;13.60;99.90;;;;;;5034827;28;20041;-74
2022/11/06 05:02:09;;;;;;;11.93;2.40;;;13.70;99.90;;;;;;5033898;28;20046;-74
2022/11/06 05:04:37;;;;;;;15.07;2.88;;;13.70;99.90;;;;;;5034747;28;20052;-75
2022/11/06 05:07:05;;;;;;;14.50;2.70;;;13.70;99.90;;;;;;5034614;28;20483;-74
2022/11/06 05:09:32;;;;;;;19.98;3.00;;;13.70;99.90;;;;;;5033758;28;20289;-74
2022/11/06 05:11:59;;;;;;;21.48;3.17;;;13.60;99.90;;;;;;5034884;28;20050;-74
2022/11/06 05:14:27;;;;;;;24.05;3.38;;;13.70;99.90;;;;;;5033687;28;20049;-73
2022/11/06 05:16:54;;;;;;;19.63;3.53;;;13.70;99.90;;;;;;5033612;28;20048;-74
2022/11/06 05:19:22;;;;;;;19.88;3.20;;;13.70;99.90;;;;;;5034380;28;20046;-74
2022/11/06 05:24:35;;;;;;;19.92;2.55;;;13.70;99.90;;;;;;5034678;28;20060;-75
2022/11/06 05:27:03;;;;;;;27.42;3.22;;;13.60;99.90;;;;;;5034450;28;20041;-74
2022/11/06 05:29:30;;;;;;;23.27;3.47;;;13.60;99.90;;;;;;5033228;28;20048;-74
2022/11/06 05:31:58;;;;;;;24.73;3.20;;;13.60;99.90;;;;;;5034969;28;20057;-74
2022/11/06 05:34:25;;;;;;;21.45;2.92;;;13.60;99.90;;;;;;5034434;28;20376;-74
2022/11/06 05:36:53;;;;;;;25.35;3.05;;;13.60;99.90;;;;;;5032725;28;20049;-74
2022/11/06 05:39:20;;;;;;;14.73;2.20;;;13.60;99.90;;;;;;5033518;28;20468;-74
2022/11/06 05:41:48;;;;;;;20.25;2.67;;;13.60;99.90;;;;;;5033441;28;20050;-74
2022/11/06 05:44:16;;;;;;;17.10;2.20;;;14.20;99.90;;;;;;5033499;28;20057;-74
2022/11/06 05:46:43;;;;;;;13.23;2.10;;;13.60;99.90;;;;;;5034726;28;20053;-74
2022/11/06 05:49:17;;;;;;;18.35;2.15;;;13.90;99.90;;;;;;5033282;28;20061;-73
2022/11/06 05:51:44;;;;;;;15.65;1.83;;;13.60;99.90;;;;;;5033287;28;20112;-74
2022/11/06 05:54:12;;;;;;;15.70;1.85;;;13.50;99.90;;;;;;5025405;28;20050;-73
2022/11/06 05:56:40;;;;;;;14.85;2.00;;;13.50;99.90;;;;;;5017026;28;20050;-74
2022/11/06 05:59:08;;;;;;;15.65;2.10;;;13.50;99.90;;;;;;5018072;28;20457;-73
2022/11/06 06:01:35;;;;;;;14.60;1.98;;;13.50;99.90;;;;;;5018248;28;20054;-74
2022/11/06 06:04:03;;;;;;;11.73;1.88;;;13.60;99.90;;;;;;5017026;28;20369;-74
2022/11/06 06:06:31;;;;;;;16.70;1.95;;;13.40;99.90;;;;;;5001228;28;20054;-74
2022/11/06 06:08:58;;;;;;;12.23;2.33;;;13.50;99.90;;;;;;4999389;28;20487;-74
2022/11/06 06:11:26;;;;;;;18.23;2.10;;;13.50;99.90;;;;;;5001011;28;20049;-74
2022/11/06 06:13:53;;;;;;;12.48;2.72;;;13.60;99.90;;;;;;5018233;28;20042;-74
2022/11/06 06:16:21;;;;;;;18.10;2.60;;;13.40;99.90;;;;;;4999958;28;20045;-74
2022/11/06 06:18:52;;;;;;;15.15;2.30;;;13.50;99.90;;;;;;5018204;28;20469;-73
2022/11/06 06:21:19;;;;;;;11.25;2.25;;;13.50;99.90;;;;;;5017708;28;20054;-74
2022/11/06 06:23:47;;;;;;;17.70;2.80;;;13.50;99.90;;;;;;5016476;28;20057;-74
2022/11/06 06:26:14;;;;;;;15.55;2.22;;;13.50;99.90;;;;;;5017887;28;20049;-74
2022/11/06 06:28:41;;;;;;;15.25;2.35;;;13.50;99.90;;;;;;5016379;28;20053;-74
2022/11/06 06:31:10;;;;;;;23.58;2.45;;;13.60;99.90;;;;;;5000434;28;20049;-74
2022/11/06 06:33:38;;;;;;;;;;;13.60;99.90;;;;;;5000889;28;20464;-75
2022/11/06 06:36:06;;;;;;;7.57;1.25;;;13.60;99.90;;;;;;5016435;28;20368;-74
2022/11/06 06:38:34;;;;;;;7.60;1.23;;;13.60;99.90;;;;;;5017538;28;20061;-74
2022/11/06 06:41:03;;;;;;;9.95;1.67;;;13.60;99.90;;;;;;5017711;28;20053;-74
2022/11/06 06:43:30;;;;;;;11.30;1.80;;;13.60;99.90;;;;;;4999149;28;20072;-74
2022/11/06 06:46:00;;;;;;;9.45;1.70;;;13.60;99.90;;;;;;5000485;28;20049;-74
2022/11/06 06:48:28;;;;;;;13.60;2.15;;;13.60;99.90;;;;;;5017397;28;20049;-74
2022/11/06 06:50:57;;;;;;;20.73;2.80;;;13.70;99.90;;;;;;5016925;28;20049;-74
2022/11/06 06:53:24;;;;;;;18.90;2.85;;;13.60;99.90;;;;;;5008660;28;20042;-74
2022/11/06 06:55:52;;;;;;;17.90;3.10;;;13.60;99.90;;;;;;5034768;28;20041;-75
2022/11/06 06:58:20;;;;;;;19.50;3.10;;;13.60;99.90;;;;;;5036072;28;20052;-74
2022/11/06 07:00:48;;;;;;;21.70;2.90;;;13.60;99.90;;;;;;5036056;28;20076;-75
2022/11/06 07:03:15;;;;;;;25.13;3.13;;;13.60;99.90;;;;;;5035213;28;20041;-75
2022/11/06 07:05:43;;;;;;;23.92;3.10;;;13.50;99.90;;;;;;5036632;28;20042;-74
2022/11/06 07:08:10;;;;;;;25.17;3.60;;;13.70;99.90;;;;;;5036658;28;20491;-74
2022/11/06 07:10:38;;;;;;;28.52;3.65;;;13.70;99.90;;;;;;5035374;28;20045;-75
2022/11/06 07:13:06;;;;;;;22.85;3.45;;;13.60;99.90;;;;;;5035867;28;20045;-74
2022/11/06 07:15:33;;;;;;;23.63;3.67;;;13.60;99.90;;;;;;5018097;28;20049;-74
2022/11/06 07:18:02;;;;;;;21.38;3.70;;;13.70;99.90;;;;;;5035726;28;20602;-74
2022/11/06 07:20:30;;;;;;;25.95;4.00;;;13.70;99.90;;;;;;5036567;28;20052;-74
2022/11/06 07:22:58;;;;;;;;;;;13.60;99.90;;;;;;5035851;28;20384;-74
2022/11/06 07:25:26;;;;;;;26.85;3.72;;;13.70;99.90;;;;;;5036221;28;19921;-74
2022/11/06 07:27:54;;;;;;;31.90;4.23;;;13.70;99.90;;;;;;5036293;28;20491;-74
2022/11/06 07:30:28;;;;;;;24.92;3.72;;;13.70;99.90;;;;;;5040997;28;20294;-74
2022/11/06 07:32:58;;;;;;;27.33;3.70;;;13.70;99.90;;;;;;5056060;28;20044;-74
2022/11/06 07:35:26;;;;;;;27.75;3.88;;;13.70;99.90;;;;;;5055270;28;20044;-74
2022/11/06 07:37:53;;;;;;;27.75;4.00;;;13.70;99.90;;;;;;5055382;28;20048;-74
2022/11/06 07:40:21;;;;;;;22.48;3.33;;;13.70;99.90;;;;;;5055927;28;20379;-75
2022/11/06 07:42:49;;;;;;;27.00;3.60;;;13.70;99.90;;;;;;5054319;28;20384;-74
2022/11/06 07:45:16;;;;;;;33.28;4.00;;;13.80;99.90;;;;;;5055134;28;20072;-74
2022/11/06 07:47:44;;;;;;;22.23;3.72;;;13.80;99.90;;;;;;5055371;28;20049;-74
2022/11/06 07:50:11;;;;;;;22.73;3.60;;;13.80;99.90;;;;;;5037439;28;20052;-74
2022/11/06 07:52:41;;;;;;;21.05;3.70;;;13.80;99.90;;;;;;5055862;28;20479;-73
2022/11/06 07:55:08;;;;;;;24.63;3.30;;;13.80;99.90;;;;;;5056437;28;20051;-74
2022/11/06 07:57:36;;;;;;;24.83;3.60;;;13.80;99.90;;;;;;5055522;28;20496;-74
2022/11/06 08:00:05;;;;;;;27.60;3.45;;;13.80;99.90;;;;;;5056081;28;20048;-74
2022/11/06 08:02:39;;;;;;;25.88;3.67;;;13.80;99.90;;;;;;5054948;28;20056;-74
2022/11/06 08:05:08;;;;;;;28.17;3.40;;;13.80;99.90;;;;;;5055594;28;20052;-74
2022/11/06 08:07:36;;;;;;;29.17;3.70;;;13.80;99.90;;;;;;5054692;28;20376;-74
2022/11/06 08:10:04;;;;;;;22.65;3.63;;;13.80;99.90;;;;;;5053650;28;20468;-74
2022/11/06 08:12:31;;;;;;;20.80;3.47;;;13.90;99.90;;;;;;5054955;28;20411;-74
2022/11/06 08:14:59;;;;;;;22.52;3.30;;;13.90;99.90;;;;;;5055149;28;20372;-74
2022/11/06 08:17:27;;;;;;;17.83;3.22;;;13.80;99.90;;;;;;5054745;28;20045;-74
2022/11/06 08:19:54;;;;;;;35.40;3.92;;;13.80;99.90;;;;;;5054681;28;20048;-73
2022/11/06 08:22:22;;;;;;;24.38;3.08;;;13.80;99.90;;;;;;5054335;28;20056;-74
2022/11/06 08:24:50;;;;;;;24.85;3.00;;;13.80;99.90;;;;;;5055799;28;20051;-74
2022/11/06 08:27:17;;;;;;;18.20;2.75;;;13.80;99.90;;;;;;5055493;28;20376;-75
2022/11/06 08:29:44;;;;;;;22.05;2.90;;;13.80;99.90;;;;;;5053671;28;20356;-74
2022/11/06 08:32:12;;;;;;;23.58;3.00;;;13.80;99.90;;;;;;5054138;28;20376;-74
2022/11/06 08:34:41;;;;;;;16.13;2.67;;;12.00;99.90;;;;;;5055011;28;20053;-75
2022/11/06 08:37:09;;;;;;;26.40;3.05;;;13.80;99.90;;;;;;5054007;28;20055;-73
2022/11/06 08:39:37;;;;;;;24.05;3.40;;;13.80;99.90;;;;;;5053938;28;20064;-74
2022/11/06 08:42:04;;;;;;;27.80;3.53;;;13.90;99.90;;;;;;5053199;28;20490;-74
2022/11/06 08:44:32;;;;;;;29.58;3.78;;;13.80;99.90;;;;;;5037530;28;20352;-74
2022/11/06 08:47:00;;;;;;;28.55;3.33;;;13.80;99.90;;;;;;5034983;28;20052;-73
2022/11/06 08:49:27;;;;;;;17.75;2.90;;;13.80;99.90;;;;;;5032919;28;20056;-74
2022/11/06 08:51:55;;;;;;;17.40;2.30;;;13.80;99.90;;;;;;5034604;28;20052;-72
2022/11/06 08:54:22;;;;;;;27.80;3.53;;;13.80;99.90;;;;;;5033592;28;20053;-72
2022/11/06 08:56:50;;;;;;;15.23;2.50;;;13.80;99.90;;;;;;5034092;28;20049;-74
2022/11/06 08:59:17;;;;;;;13.77;2.45;;;13.80;99.90;;;;;;5034745;28;20372;-73
2022/11/06 09:01:45;;;;;;;11.70;2.00;;;13.80;99.90;;;;;;5033633;28;20042;-73
2022/11/06 09:04:13;;;;;;;23.70;3.15;;;13.70;99.90;;;;;;5033564;28;20057;-74
2022/11/06 09:06:40;;;;;;;12.88;2.30;;;13.80;99.90;;;;;;5034541;28;20048;-74
2022/11/06 09:09:08;;;;;;;13.48;1.85;;;13.80;99.90;;;;;;5033452;28;20042;-73
2022/11/06 09:11:36;;;;;;;12.25;1.60;;;13.80;99.90;;;;;;5034530;28;20046;-73
2022/11/06 09:14:03;;;;;;;8.52;1.67;;;13.70;99.90;;;;;;5034191;28;20049;-75
2022/11/06 09:16:31;;;;;;;0.00;0.00;;;13.70;99.90;;;;;;5032405;28;20046;-70
2022/11/06 09:18:58;;;;;;;0.00;0.00;;;13.80;99.90;;;;;;5034210;28;20045;-73
2022/11/06 09:21:26;;;;;;;0.00;0.00;;;13.70;99.90;;;;;;5034285;28;20049;-74
2022/11/06 09:23:53;;;;;;;0.00;0.00;;;13.70;99.90;;;;;;5033072;28;20046;-75
2022/11/06 09:26:21;;;;;;;0.00;0.00;;;13.70;99.90;;;;;;5035301;28;20629;-76
2022/11/06 09:28:48;;;;;;;0.00;0.00;;;13.70;99.90;;;;;;5036996;28;20056;-74
2022/11/06 09:31:16;;;;;;;0.00;0.00;;;14.20;99.90;;;;;;5038140;28;20045;-74
2022/11/06 09:33:43;;;;;;;0.00;0.00;;;14.20;99.90;;;;;;5038116;28;20045;-75
2022/11/06 09:36:11;;;;;;;0.00;0.00;;;13.70;99.90;;;;;;5037098;28;20042;-74
2022/11/06 09:38:38;;;;;;;0.00;0.00;;;13.70;99.90;;;;;;5038084;28;20052;-75
2022/11/06 09:41:06;;;;;;;0.00;0.00;;;14.50;99.90;;;;;;5037399;28;20049;-74
2022/11/06 09:44:08;;;;;;;0.00;0.00;;;13.70;99.90;;;;;;5037270;28;20049;-74
2022/11/06 09:46:45;;;;;;;0.00;0.00;;;13.60;99.90;;;;;;5038639;28;20076;-76
2022/11/06 09:49:27;;;;;;;0.00;0.00;;;13.70;99.90;;;;;;5037223;28;20068;-75
2022/11/06 09:52:30;;;;;;;0.00;0.00;;;13.70;99.90;;;;;;5037469;28;20563;-74
2022/11/06 09:55:02;;;;;;;0.00;0.00;;;13.70;99.90;;;;;;5019294;28;20057;-75
2022/11/06 09:57:40;;;;;;;0.00;0.00;;;13.70;99.90;;;;;;5017241;28;20053;-74
2022/11/06 10:00:12;;;;;;;0.00;0.00;;;13.70;99.90;;;;;;5018186;28;20049;-76
2022/11/06 10:02:48;;;;;;;0.00;0.00;;;13.70;99.90;;;;;;5004745;28;20052;-76
2022/11/06 10:05:32;;;;;;;0.00;0.00;;;13.60;99.90;;;;;;5018470;28;20057;-76
2022/11/06 10:08:21;;;;;;;0.00;0.00;;;13.60;99.90;;;;;;5018070;28;20112;-74
2022/11/06 10:11:01;;;;;;;;;;;13.60;99.90;;;;;;5000371;28;20492;-75
2022/11/06 10:13:56;;;;;;;0.00;0.00;;;13.60;99.90;;;;;;5018347;28;20271;-75
2022/11/06 10:16:41;;;;;;;0.00;0.00;;;13.60;99.90;;;;;;5016720;28;20065;-75
2022/11/06 10:19:14;;;;;;;0.00;0.00;;;13.60;99.90;;;;;;5018094;28;20046;-74
2022/11/06 10:21:52;;;;;;;0.00;0.00;;;13.60;99.90;;;;;;5018207;28;20057;-75
2022/11/06 10:24:46;;;;;;;0.00;0.00;;;13.60;99.90;;;;;;5018135;28;20052;-74
2022/11/06 10:27:30;;;;;;;0.00;0.00;;;13.60;99.90;;;;;;5008302;28;20058;-75
2022/11/06 10:30:17;;;;;;;0.00;0.00;;;13.50;99.90;;;;;;5016485;28;20058;-73
2022/11/06 10:32:53;;;;;;;0.00;0.00;;;13.50;99.90;;;;;;5009641;28;20042;-76
2022/11/06 10:35:23;;;;;;;0.00;0.00;;;13.50;99.90;;;;;;5036464;28;20045;-75
2022/11/06 10:37:59;;;;;;;0.00;0.00;;;13.50;99.90;;;;;;5019060;28;20053;-75
2022/11/06 10:40:30;;;;;;;0.00;0.00;;;13.50;99.90;;;;;;5037219;28;20049;-74
2022/11/06 10:43:22;;;;;;;0.00;0.00;;;13.40;99.90;;;;;;5030346;28;20057;-77
2022/11/06 10:46:00;;;;;;;0.00;0.00;;;13.40;99.90;;;;;;5000336;28;20057;-75
2022/11/06 10:48:36;;;;;;;0.00;0.00;;;13.20;99.90;;;;;;5017470;28;20072;-78
2022/11/06 10:51:25;;;;;;;0.00;0.00;;;13.30;99.90;;;;;;5017147;28;20046;-75
2022/11/06 10:53:53;;;;;;;0.00;0.00;;;13.30;99.90;;;;;;5017113;28;20038;-76
2022/11/06 10:56:20;;;;;;;0.00;0.00;;;13.30;99.90;;;;;;5016094;28;20050;-76
2022/11/06 10:58:48;;;;;;;0.00;0.00;;;13.30;99.90;;;;;;4999840;28;20046;-76
2022/11/06 11:01:15;;;;;;;0.00;0.00;;;13.30;99.90;;;;;;5000279;28;20077;-75
2022/11/06 11:03:45;;;;;;;0.00;0.00;;;13.20;99.90;;;;;;5015920;28;20060;-77
2022/11/06 11:06:13;;;;;;;0.00;0.00;;;13.20;99.90;;;;;;4999960;28;20499;-74
2022/11/06 11:08:43;;;;;;;0.00;0.00;;;13.30;99.90;;;;;;5015732;28;20042;-75
2022/11/06 11:11:13;;;;;;;0.00;0.00;;;13.20;99.90;;;;;;5017026;28;20062;-76
2022/11/06 11:14:08;;;;;;;0.00;0.00;;;13.30;99.90;;;;;;4999856;28;20042;-74
2022/11/06 11:16:43;;;;;;;0.00;0.00;;;13.20;99.90;;;;;;5011666;28;20042;-75
2022/11/06 11:19:25;;;;;;;0.00;0.00;;;13.20;99.90;;;;;;4999766;28;20053;-74
2022/11/06 11:21:54;;;;;;;0.00;0.00;;;13.20;99.90;;;;;;5016460;28;20456;-76
2022/11/06 11:24:22;;;;;;;0.00;0.00;;;13.20;99.90;;;;;;5036362;28;20045;-74
2022/11/06 11:26:53;;;;;;;0.00;0.00;;;13.20;99.90;;;;;;5036643;28;20049;-77
2022/11/06 11:29:30;;;;;;;0.00;0.00;;;13.20;99.90;;;;;;5018264;28;20053;-76
2022/11/06 11:32:06;;;;;;;0.00;0.00;;;13.20;99.90;;;;;;5036387;28;20068;-75
2022/11/06 11:34:42;;;;;;;0.00;0.00;;;13.70;99.90;;;;;;5019347;28;20132;-75
2022/11/06 11:37:34;;;;;;;0.00;0.00;;;13.30;99.90;;;;;;5035017;28;20472;-74
2022/11/06 11:40:17;;;;;;;0.00;0.00;;;13.40;99.90;;;;;;5036539;28;20049;-74
2022/11/06 11:42:45;;;;;;;0.00;0.00;;;13.40;99.90;;;;;;5034892;28;20041;-75
2022/11/06 11:45:16;;;;;;;0.00;0.00;;;13.40;99.90;;;;;;5036341;28;20041;-74
2022/11/06 11:47:50;;;;;;;0.00;0.00;;;13.40;99.90;;;;;;5036561;28;20353;-75
2022/11/06 11:50:30;;;;;;;0.00;0.00;;;13.40;99.90;;;;;;5017752;28;20465;-76
2022/11/06 11:53:09;;;;;;;0.00;0.00;;;13.40;99.90;;;;;;5035830;28;20037;-75
2022/11/06 11:55:47;;;;;;;0.00;0.00;;;13.40;99.90;;;;;;5035088;28;20053;-74
2022/11/06 11:58:26;;;;;;;0.00;0.00;;;13.30;99.90;;;;;;5018878;28;20042;-76
2022/11/06 12:01:00;;;;;;;0.00;0.00;;;13.30;99.90;;;;;;5035839;28;20419;-74
2022/11/06 12:03:38;;;;;;;0.00;0.00;;;13.40;99.90;;;;;;5017236;28;20049;-75
2022/11/06 12:06:15;;;;;;;0.00;0.00;;;13.20;99.90;;;;;;5035931;28;20484;-76
2022/11/06 12:08:52;;;;;;;0.00;0.00;;;13.20;99.90;;;;;;5034727;28;20054;-76
2022/11/06 12:11:23;;;;;;;0.00;0.00;;;13.20;99.90;;;;;;5035873;28;20056;-76
2022/11/06 12:14:17;;;;;;;0.00;0.00;;;13.10;99.90;;;;;;5018323;28;20049;-76
2022/11/06 12:16:50;;;;;;;0.00;0.00;;;13.10;99.90;;;;;;5034597;28;20041;-75
2022/11/06 12:19:20;;;;;;;0.00;0.00;;;13.00;99.90;;;;;;5018233;28;20480;-75
2022/11/06 12:21:53;;;;;;;0.00;0.00;;;13.10;99.90;;;;;;5035472;28;20050;-76
2022/11/06 12:24:36;;;;;;;0.00;0.00;;;13.40;99.90;;;;;;5018653;28;20046;-77
2022/11/06 12:27:12;;;;;;;0.00;0.00;;;13.10;99.90;;;;;;5017991;28;20365;-75
2022/11/06 12:30:00;;;;;;;0.00;0.00;;;13.10;99.90;;;;;;5034295;28;20056;-73
2022/11/06 12:32:54;;;;;;;0.00;0.00;;;13.10;99.90;;;;;;5017760;28;20376;-75
2022/11/06 12:35:39;;;;;;;0.00;0.00;;;13.10;99.90;;;;;;5034393;28;20045;-75
2022/11/06 12:38:17;;;;;;;0.00;0.00;;;13.00;99.90;;;;;;5035125;28;20046;-74
2022/11/06 12:41:00;;;;;;;0.00;0.00;;;13.10;99.90;;;;;;5017746;28;20049;-74
2022/11/06 12:43:42;;;;;;;0.00;0.00;;;13.10;99.90;;;;;;5013318;28;20383;-75
2022/11/06 12:46:29;;;;;;;0.00;0.00;;;13.20;99.90;;;;;;5026437;28;20168;-76
2022/11/06 12:49:18;;;;;;;0.00;0.00;;;13.20;99.90;;;;;;4985484;28;20121;-75
2022/11/06 12:52:04;;;;;;;0.00;0.00;;;13.20;99.90;;;;;;5021642;28;20053;-77
2022/11/06 12:54:46;;;;;;;0.00;0.00;;;13.30;99.90;;;;;;5024514;28;20364;-77
2022/11/06 12:57:53;;;;;;;0.00;0.00;;;13.40;99.90;;;;;;5033902;28;20479;-76
2022/11/06 13:00:24;;;;;;;0.00;0.00;;;13.40;99.90;;;;;;5034749;28;20041;-75
2022/11/06 13:03:32;;;;;;;0.00;0.00;;;13.40;99.90;;;;;;5033612;28;20052;-74
2022/11/06 13:06:21;;;;;;;0.00;0.00;;;13.50;99.90;;;;;;5033628;28;20385;-78
2022/11/06 13:08:54;;;;;;;0.00;0.00;;;13.50;99.90;;;;;;5033746;28;20050;-73
2022/11/06 13:11:28;;;;;;;0.00;0.00;;;13.50;99.90;;;;;;5054259;28;20041;-73
2022/11/06 13:14:17;;;;;;;0.00;0.00;;;13.60;99.90;;;;;;5052842;28;20037;-74
2022/11/06 13:17:03;;;;;;;0.00;0.00;;;13.60;99.90;;;;;;5052268;28;20048;-73
2022/11/06 13:19:51;;;;;;;0.00;0.00;;;13.60;99.90;;;;;;5054336;28;20064;-74
2022/11/06 13:22:38;;;;;;;0.00;0.00;;;13.60;99.90;;;;;;5053664;28;20053;-73
2022/11/06 13:25:53;;;;;;;0.00;0.00;;;13.60;99.90;;;;;;5053299;28;20056;-73
2022/11/06 13:28:45;;;;;;;0.00;0.00;;;13.80;99.90;;;;;;4995293;28;20749;-73